createdAt,value
2023-04-08T00:00:02.018Z,13.77
2023-04-08T00:02:34.979Z,12.90
2023-04-08T00:07:42.823Z,12.15
2023-04-08T00:10:15.627Z,9.75
2023-04-08T00:12:55.299Z,12.43
2023-04-08T00:15:28.238Z,15.77
2023-04-08T00:20:35.556Z,13.57
2023-04-08T00:23:08.287Z,16.58
2023-04-08T00:25:41.219Z,15.43
2023-04-08T00:28:15.379Z,14.85
2023-04-08T00:30:48.616Z,13.88
2023-04-08T00:35:57.158Z,13.68
2023-04-08T00:38:30.939Z,16.55
2023-04-08T00:41:03.711Z,13.10
2023-04-08T00:43:36.413Z,22.08
2023-04-08T00:46:10.853Z,16.10
2023-04-08T00:48:43.752Z,20.67
2023-04-08T00:51:17.958Z,12.93
2023-04-08T00:53:50.783Z,14.45
2023-04-08T00:56:23.983Z,19.55
2023-04-08T00:58:56.847Z,15.63
2023-04-08T01:04:14.569Z,21.23
2023-04-08T01:06:56.004Z,20.40
2023-04-08T01:09:33.356Z,17.40
2023-04-08T01:12:09.244Z,19.63
2023-04-08T01:14:46.036Z,19.00
2023-04-08T01:17:20.629Z,18.02
2023-04-08T01:19:55.792Z,21.27
2023-04-08T01:22:38.330Z,20.08
2023-04-08T01:25:17.678Z,21.02
2023-04-08T01:27:56.489Z,22.25
2023-04-08T01:30:31.441Z,21.95
2023-04-08T01:33:06.705Z,20.92
2023-04-08T01:35:39.770Z,21.92
2023-04-08T01:38:17.984Z,23.90
2023-04-08T01:40:52.093Z,22.67
2023-04-08T01:43:28.394Z,26.52
2023-04-08T01:46:02.286Z,29.60
2023-04-08T01:48:36.636Z,25.63
2023-04-08T01:51:10.841Z,25.95
2023-04-08T01:53:44.246Z,26.42
2023-04-08T01:56:17.947Z,21.60
2023-04-08T01:58:56.184Z,27.50
2023-04-08T02:01:31.646Z,23.95
2023-04-08T02:04:05.299Z,25.30
2023-04-08T02:06:39.112Z,27.70
2023-04-08T02:09:12.323Z,28.17
2023-04-08T02:11:45.059Z,27.75
2023-04-08T02:14:20.739Z,25.23
2023-04-08T02:16:55.902Z,26.15
2023-04-08T02:19:32.220Z,27.58
2023-04-08T02:22:10.779Z,22.90
2023-04-08T02:24:44.713Z,24.67
2023-04-08T02:27:19.783Z,22.17
2023-04-08T02:29:58.154Z,22.48
2023-04-08T02:32:33.939Z,24.88
2023-04-08T02:35:08.015Z,25.02
2023-04-08T02:37:41.180Z,23.13
2023-04-08T02:40:27.545Z,23.25
2023-04-08T02:43:01.525Z,22.00
2023-04-08T02:45:40.213Z,22.10
2023-04-08T02:48:13.182Z,23.25
2023-04-08T02:50:46.156Z,20.65
2023-04-08T02:55:53.188Z,20.80
2023-04-08T02:58:26.348Z,22.15
2023-04-08T03:01:00.477Z,21.88
2023-04-08T03:03:33.564Z,25.17
2023-04-08T03:06:06.681Z,26.00
2023-04-08T03:08:39.557Z,22.85
2023-04-08T03:11:12.751Z,26.58
2023-04-08T03:13:46.777Z,24.00
2023-04-08T03:16:21.164Z,24.92
2023-04-08T03:18:54.128Z,23.30
2023-04-08T03:23:59.840Z,25.38
2023-04-08T03:26:32.546Z,23.08
2023-04-08T03:29:06.884Z,23.85
2023-04-08T03:31:41.675Z,26.55
2023-04-08T03:34:14.903Z,21.00
2023-04-08T03:36:47.783Z,21.55
2023-04-08T03:39:20.767Z,22.63
2023-04-08T03:41:53.829Z,20.70
2023-04-08T03:44:26.648Z,19.40
2023-04-08T03:49:33.780Z,22.60
2023-04-08T03:52:07.279Z,19.70
2023-04-08T03:54:40.150Z,19.85
2023-04-08T03:57:13.094Z,20.10
2023-04-08T03:59:46.352Z,20.30
2023-04-08T04:02:20.824Z,18.20
2023-04-08T04:04:53.676Z,20.30
2023-04-08T04:07:26.662Z,19.05
2023-04-08T04:12:32.204Z,20.55
2023-04-08T04:15:08.489Z,19.10
2023-04-08T04:17:43.395Z,18.60
2023-04-08T04:20:19.169Z,17.25
2023-04-08T04:22:54.234Z,18.55
2023-04-08T04:25:26.910Z,18.05
2023-04-08T04:28:00.080Z,16.98
2023-04-08T04:30:32.822Z,19.63
2023-04-08T04:33:07.342Z,16.75
2023-04-08T04:35:40.997Z,17.67
2023-04-08T04:38:13.880Z,22.23
2023-04-08T04:43:20.144Z,17.60
2023-04-08T04:45:52.835Z,19.15
2023-04-08T04:48:27.245Z,22.40
2023-04-08T04:51:01.401Z,19.50
2023-04-08T04:53:34.624Z,17.52
2023-04-08T04:56:07.861Z,23.52
2023-04-08T04:58:40.676Z,19.63
2023-04-08T05:01:13.471Z,19.73
2023-04-08T05:03:48.132Z,18.92
2023-04-08T05:06:21.219Z,17.00
2023-04-08T05:08:54.745Z,18.83
2023-04-08T05:11:27.504Z,20.05
2023-04-08T05:14:00.331Z,20.60
2023-04-08T05:16:33.533Z,21.75
2023-04-08T05:19:10.200Z,23.00
2023-04-08T05:21:43.019Z,23.60
2023-04-08T05:24:16.234Z,23.25
2023-04-08T05:26:53.533Z,19.75
2023-04-08T05:29:26.581Z,20.30
2023-04-08T05:32:00.038Z,23.83
2023-04-08T05:34:34.544Z,19.92
2023-04-08T05:37:07.598Z,23.20
2023-04-08T05:39:40.443Z,20.42
2023-04-08T05:42:13.917Z,21.92
2023-04-08T05:44:46.890Z,26.77
2023-04-08T05:49:56.472Z,24.50
2023-04-08T05:52:29.246Z,24.17
2023-04-08T05:57:34.777Z,24.05
2023-04-08T06:00:09.640Z,22.80
2023-04-08T06:02:43.137Z,27.30
2023-04-08T06:07:50.503Z,28.20
2023-04-08T06:10:23.461Z,28.30
2023-04-08T06:12:56.795Z,28.30
2023-04-08T06:15:29.860Z,34.75
2023-04-08T06:18:03.130Z,30.90
2023-04-08T06:20:38.189Z,31.77
2023-04-08T06:23:11.035Z,27.70
2023-04-08T06:28:17.560Z,32.67
2023-04-08T06:30:50.573Z,33.05
2023-04-08T06:33:23.643Z,31.10
2023-04-08T06:36:04.865Z,32.53
2023-04-08T06:38:37.875Z,30.90
2023-04-08T06:41:11.013Z,29.13
2023-04-08T06:43:43.863Z,32.75
2023-04-08T06:46:16.996Z,35.80
2023-04-08T06:48:50.460Z,31.70
2023-04-08T06:51:28.020Z,32.35
2023-04-08T06:54:00.765Z,32.42
2023-04-08T06:56:33.628Z,33.78
2023-04-08T06:59:06.926Z,33.83
2023-04-08T07:01:39.709Z,32.80
2023-04-08T07:04:13.069Z,31.80
2023-04-08T07:06:47.303Z,37.40
2023-04-08T07:09:23.439Z,36.42
2023-04-08T07:11:57.738Z,33.38
2023-04-08T07:14:30.932Z,35.83
2023-04-08T07:17:03.719Z,35.15
2023-04-08T07:19:37.510Z,35.47
2023-04-08T07:22:11.607Z,37.97
2023-04-08T07:24:49.568Z,32.92
2023-04-08T07:27:22.662Z,33.17
2023-04-08T07:29:55.987Z,37.67
2023-04-08T07:32:29.096Z,39.03
2023-04-08T07:35:02.262Z,38.33
2023-04-08T07:37:36.743Z,41.10
2023-04-08T07:40:10.949Z,37.75
2023-04-08T07:42:43.805Z,33.65
2023-04-08T07:47:49.931Z,31.27
2023-04-08T07:55:34.847Z,39.42
2023-04-08T07:58:07.818Z,38.35
2023-04-08T08:03:14.111Z,37.10
2023-04-08T08:05:47.290Z,32.42
2023-04-08T08:08:21.631Z,33.97
2023-04-08T08:10:54.538Z,39.00
2023-04-08T08:16:00.870Z,39.03
2023-04-08T08:18:36.026Z,36.95
2023-04-08T08:21:09.239Z,38.10
2023-04-08T08:23:43.898Z,41.65
2023-04-08T08:26:17.206Z,43.25
2023-04-08T08:28:50.512Z,36.20
2023-04-08T08:31:26.063Z,37.30
2023-04-08T08:33:58.957Z,39.55
2023-04-08T08:39:08.472Z,43.85
2023-04-08T08:41:42.311Z,40.08
2023-04-08T08:44:15.835Z,42.13
2023-04-08T08:46:49.588Z,39.55
2023-04-08T08:49:23.847Z,38.63
2023-04-08T08:51:57.238Z,41.20
2023-04-08T08:54:31.871Z,39.55
2023-04-08T08:57:05.334Z,39.85
2023-04-08T08:59:38.489Z,41.35
2023-04-08T09:04:59.719Z,41.55
2023-04-08T09:07:36.881Z,40.42
2023-04-08T09:10:11.896Z,37.75
2023-04-08T09:12:56.766Z,35.15
2023-04-08T09:15:30.386Z,36.70
2023-04-08T09:18:03.929Z,39.65
2023-04-08T09:20:37.257Z,37.50
2023-04-08T09:23:09.987Z,36.30
2023-04-08T09:25:44.531Z,39.42
2023-04-08T09:28:21.586Z,41.40
2023-04-08T09:30:54.786Z,42.28
2023-04-08T09:33:32.382Z,36.05
2023-04-08T09:36:05.480Z,36.70
2023-04-08T09:38:38.393Z,38.20
2023-04-08T09:43:50.865Z,42.30
2023-04-08T09:46:27.842Z,40.97
2023-04-08T09:49:07.353Z,35.83
2023-04-08T09:51:44.699Z,35.63
2023-04-08T09:54:23.140Z,37.58
2023-04-08T09:57:06.466Z,37.88
2023-04-08T09:59:45.872Z,35.42
2023-04-08T10:02:23.783Z,31.55
2023-04-08T10:04:59.014Z,33.33
2023-04-08T10:07:31.897Z,33.95
2023-04-08T10:10:05.668Z,36.92
2023-04-08T10:12:40.708Z,37.58
2023-04-08T10:15:29.904Z,37.42
2023-04-08T10:18:31.402Z,39.25
2023-04-08T10:21:04.564Z,35.85
2023-04-08T10:23:59.580Z,31.67
2023-04-08T10:26:34.858Z,36.10
2023-04-08T10:29:34.831Z,30.98
2023-04-08T10:32:07.810Z,30.30
2023-04-08T10:34:53.921Z,32.60
2023-04-08T10:37:26.658Z,31.38
2023-04-08T10:39:59.593Z,31.92
2023-04-08T10:45:07.368Z,30.40
2023-04-08T10:47:40.649Z,28.95
2023-04-08T10:50:15.605Z,35.03
2023-04-08T10:52:48.874Z,32.03
2023-04-08T10:55:25.083Z,31.75
2023-04-08T10:58:07.864Z,35.88
2023-04-08T11:00:42.191Z,33.33
2023-04-08T11:03:15.810Z,33.90
2023-04-08T11:05:51.855Z,33.78
2023-04-08T11:08:29.105Z,33.78
2023-04-08T11:11:02.751Z,32.50
2023-04-08T11:13:36.880Z,31.33
2023-04-08T11:16:18.294Z,29.77
2023-04-08T11:18:52.446Z,31.05
2023-04-08T11:21:29.090Z,24.23
2023-04-08T11:24:02.029Z,29.10
2023-04-08T11:26:35.588Z,27.27
2023-04-08T11:29:12.724Z,22.45
2023-04-08T11:31:49.605Z,20.52
2023-04-08T11:34:26.186Z,21.20
2023-04-08T11:36:59.552Z,18.63
2023-04-08T11:39:32.349Z,18.70
2023-04-08T11:44:37.840Z,19.30
2023-04-08T11:47:12.012Z,20.30
2023-04-08T11:49:45.635Z,20.40
2023-04-08T11:52:18.450Z,21.08
2023-04-08T11:54:51.432Z,18.70
2023-04-08T12:00:06.930Z,20.63
2023-04-08T12:02:44.944Z,17.05
2023-04-08T12:05:18.088Z,21.02
2023-04-08T12:07:51.098Z,22.08
2023-04-08T12:12:58.002Z,17.95
2023-04-08T12:18:05.890Z,21.88
2023-04-08T12:20:38.688Z,17.85
2023-04-08T12:25:44.751Z,15.20
2023-04-08T12:28:17.714Z,16.05
2023-04-08T12:30:50.573Z,19.98
2023-04-08T12:33:24.901Z,16.98
2023-04-08T12:35:59.132Z,20.70
2023-04-08T12:38:33.788Z,17.67
2023-04-08T12:41:07.603Z,14.75
2023-04-08T12:43:40.618Z,20.45
2023-04-08T12:46:13.548Z,15.18
2023-04-08T12:51:36.756Z,19.10
2023-04-08T12:54:09.956Z,14.88
2023-04-08T12:56:43.372Z,20.25
2023-04-08T12:59:16.382Z,15.15
2023-04-08T13:04:23.271Z,13.25
2023-04-08T13:06:56.994Z,21.85
2023-04-08T13:09:30.798Z,15.15
2023-04-08T13:12:03.845Z,20.30
2023-04-08T13:17:10.576Z,25.13
2023-04-08T13:19:44.811Z,16.25
2023-04-08T13:22:17.929Z,15.40
2023-04-08T13:24:51.395Z,14.60
2023-04-08T13:27:24.326Z,12.48
2023-04-08T13:32:30.334Z,12.20
2023-04-08T13:35:04.915Z,16.42
2023-04-08T13:37:37.910Z,13.85
2023-04-08T13:40:12.240Z,12.52
2023-04-08T13:42:44.927Z,12.02
2023-04-08T13:45:17.839Z,15.30
2023-04-08T13:50:25.109Z,14.23
2023-04-08T13:52:58.134Z,14.38
2023-04-08T13:55:31.151Z,13.35
2023-04-08T13:58:08.786Z,12.20
2023-04-08T14:00:47.032Z,10.93
2023-04-08T14:05:56.280Z,13.60
2023-04-08T14:08:29.056Z,16.40
2023-04-08T14:11:01.944Z,15.23
2023-04-08T14:16:07.733Z,13.32
2023-04-08T14:18:40.872Z,13.27
2023-04-08T14:21:16.218Z,12.55
2023-04-08T14:23:49.009Z,16.42
2023-04-08T14:28:55.168Z,15.68
2023-04-08T14:31:28.318Z,14.18
2023-04-08T14:34:01.980Z,12.95
2023-04-08T14:36:36.442Z,14.05
2023-04-08T14:39:09.596Z,13.38
2023-04-08T14:41:42.338Z,17.42
2023-04-08T14:44:15.296Z,15.30
2023-04-08T14:46:48.267Z,16.23
2023-04-08T14:49:21.842Z,14.90
2023-04-08T14:51:56.993Z,11.48
2023-04-08T14:54:29.923Z,15.25
2023-04-08T14:57:03.694Z,17.25
2023-04-08T14:59:36.455Z,15.57
2023-04-08T15:02:09.507Z,15.93
2023-04-08T15:04:42.317Z,16.23
2023-04-08T15:07:16.828Z,15.38
2023-04-08T15:09:49.549Z,13.20
2023-04-08T15:12:23.183Z,13.65
2023-04-08T15:14:56.103Z,13.80
2023-04-08T15:20:01.618Z,12.50
2023-04-08T15:25:09.608Z,13.20
2023-04-08T15:27:43.039Z,14.60
2023-04-08T15:30:17.304Z,17.80
2023-04-08T15:32:50.254Z,14.45
2023-04-08T15:35:23.357Z,17.55
2023-04-08T15:37:57.596Z,14.30
2023-04-08T15:40:34.244Z,15.88
2023-04-08T15:43:10.131Z,15.95
2023-04-08T15:45:46.601Z,13.35
2023-04-08T15:48:19.694Z,10.23
2023-04-08T15:50:52.647Z,10.25
2023-04-08T15:53:26.957Z,12.90
2023-04-08T15:55:59.845Z,10.15
2023-04-08T16:01:05.706Z,13.02
2023-04-08T16:03:38.934Z,11.30
2023-04-08T16:06:11.899Z,10.48
2023-04-08T16:08:47.181Z,11.35
2023-04-08T16:11:20.075Z,9.80
2023-04-08T16:13:53.059Z,11.63
2023-04-08T16:16:26.620Z,14.23
2023-04-08T16:19:00.221Z,15.00
2023-04-08T16:21:32.978Z,16.90
2023-04-08T16:24:07.441Z,15.13
2023-04-08T16:26:40.885Z,16.75
2023-04-08T16:29:13.817Z,13.13
2023-04-08T16:31:46.678Z,16.60
2023-04-08T16:36:55.558Z,14.18
2023-04-08T16:39:29.825Z,16.08
2023-04-08T16:42:02.554Z,16.20
2023-04-08T16:44:35.615Z,17.33
2023-04-08T16:47:08.400Z,16.27
2023-04-08T16:49:41.242Z,15.88
2023-04-08T16:52:13.937Z,16.60
2023-04-08T16:54:48.179Z,15.45
2023-04-08T16:57:21.196Z,14.63
2023-04-08T16:59:54.188Z,13.05
2023-04-08T17:05:00.624Z,11.48
2023-04-08T17:07:33.970Z,12.88
2023-04-08T17:10:09.679Z,14.13
2023-04-08T17:12:42.763Z,10.98
2023-04-08T17:15:15.822Z,14.10
2023-04-08T17:17:48.660Z,14.13
2023-04-08T17:20:22.093Z,12.00
2023-04-08T17:22:54.841Z,11.95
2023-04-08T17:25:29.226Z,13.75
2023-04-08T17:28:02.748Z,20.17
2023-04-08T17:30:35.665Z,12.32
2023-04-08T17:35:41.412Z,13.30
2023-04-08T17:38:14.464Z,15.95
2023-04-08T17:40:48.724Z,13.27
2023-04-08T17:43:21.595Z,15.80
2023-04-08T17:45:54.379Z,13.88
2023-04-08T17:48:27.680Z,14.82
2023-04-08T17:51:01.771Z,15.23
2023-04-08T17:53:35.428Z,13.35
2023-04-08T17:56:10.002Z,11.63
2023-04-08T17:58:42.849Z,15.48
2023-04-08T18:01:15.706Z,13.45
2023-04-08T18:03:49.837Z,12.95
2023-04-08T18:06:22.859Z,15.93
2023-04-08T18:08:55.621Z,17.52
2023-04-08T18:11:30.146Z,12.57
2023-04-08T18:14:02.862Z,12.75
2023-04-08T18:16:35.620Z,14.00
2023-04-08T18:19:08.630Z,13.23
2023-04-08T18:24:14.159Z,13.65
2023-04-08T18:26:54.452Z,13.80
2023-04-08T18:29:34.622Z,14.88
2023-04-08T18:34:40.392Z,11.02
2023-04-08T18:39:46.028Z,14.00
2023-04-08T18:42:20.353Z,12.30
2023-04-08T18:44:53.054Z,13.18
2023-04-08T18:47:25.922Z,13.68
2023-04-08T18:49:58.622Z,13.27
2023-04-08T18:52:32.422Z,12.73
2023-04-08T18:55:05.538Z,12.00
2023-04-08T18:57:39.762Z,10.02
2023-04-08T19:00:13.092Z,11.95
2023-04-08T19:02:46.204Z,9.70
2023-04-08T19:05:19.326Z,8.55
2023-04-08T19:07:53.094Z,11.40
2023-04-08T19:10:26.040Z,12.13
2023-04-08T19:15:32.786Z,13.77
2023-04-08T19:18:05.766Z,11.68
2023-04-08T19:20:39.324Z,14.07
2023-04-08T19:23:12.033Z,12.73
2023-04-08T19:25:44.929Z,13.05
2023-04-08T19:30:51.619Z,11.73
2023-04-08T19:35:57.777Z,13.45
2023-04-08T19:38:30.899Z,15.35
2023-04-08T19:41:03.741Z,11.75
2023-04-08T19:43:37.929Z,13.00
2023-04-08T19:46:10.753Z,11.15
2023-04-08T19:48:44.327Z,13.88
2023-04-08T19:51:20.255Z,12.45
2023-04-08T19:53:53.298Z,15.32
2023-04-08T19:56:26.611Z,15.35
2023-04-08T19:59:01.366Z,11.43
2023-04-08T20:01:35.863Z,14.88
2023-04-08T20:04:09.177Z,13.05
2023-04-08T20:06:42.225Z,10.18
2023-04-08T20:11:47.512Z,12.33
2023-04-08T20:14:21.788Z,11.85
2023-04-08T20:16:54.448Z,10.10
2023-04-08T20:19:27.302Z,11.02
2023-04-08T20:24:38.346Z,11.95
2023-04-08T20:27:11.139Z,13.73
2023-04-08T20:29:45.576Z,11.88
2023-04-08T20:32:18.334Z,11.27
2023-04-08T20:34:51.582Z,9.07
2023-04-08T20:37:24.237Z,11.27
2023-04-08T20:39:57.550Z,12.43
2023-04-08T20:42:30.603Z,15.70
2023-04-08T20:45:05.067Z,12.02
2023-04-08T20:47:37.888Z,11.85
2023-04-08T20:50:11.626Z,12.82
2023-04-08T20:52:44.418Z,16.42
2023-04-08T20:55:17.666Z,11.73
2023-04-08T20:57:50.426Z,14.07
2023-04-08T21:00:24.563Z,13.02
2023-04-08T21:02:57.753Z,11.48
2023-04-08T21:05:30.529Z,12.15
2023-04-08T21:08:03.256Z,15.18
2023-04-08T21:10:36.059Z,12.60
2023-04-08T21:13:08.877Z,12.05
2023-04-08T21:15:43.140Z,13.73
2023-04-08T21:18:15.914Z,15.88
2023-04-08T21:20:49.886Z,13.63
2023-04-08T21:23:22.627Z,11.65
2023-04-08T21:25:56.384Z,19.20
2023-04-08T21:28:29.173Z,14.95
2023-04-08T21:31:10.023Z,14.95
2023-04-08T21:33:42.746Z,15.23
2023-04-08T21:36:15.530Z,14.68
2023-04-08T21:38:48.210Z,13.55
2023-04-08T21:41:21.762Z,15.75
2023-04-08T21:43:54.675Z,13.93
2023-04-08T21:49:01.935Z,15.00
2023-04-08T21:51:35.267Z,15.10
2023-04-08T21:54:08.152Z,11.88
2023-04-08T21:59:13.648Z,10.37
2023-04-08T22:01:48.242Z,12.27
2023-04-08T22:04:22.356Z,12.93
2023-04-08T22:06:55.232Z,13.55
2023-04-08T22:09:27.918Z,13.93
2023-04-08T22:12:01.581Z,11.27
2023-04-08T22:14:34.322Z,14.70
2023-04-08T22:17:08.548Z,12.63
2023-04-08T22:19:41.518Z,12.00
2023-04-08T22:24:46.831Z,10.90
2023-04-08T22:27:19.891Z,11.38
2023-04-08T22:29:52.582Z,12.77
2023-04-08T22:32:26.668Z,10.45
2023-04-08T22:34:59.430Z,12.25
2023-04-08T22:37:32.727Z,13.05
2023-04-08T22:40:06.633Z,11.43
2023-04-08T22:42:39.711Z,12.65
2023-04-08T22:45:12.350Z,11.18
2023-04-08T22:47:46.439Z,12.63
2023-04-08T22:50:19.232Z,11.50
2023-04-08T22:52:52.192Z,14.32
2023-04-08T22:55:24.866Z,13.65
2023-04-08T22:57:57.601Z,14.02
2023-04-08T23:00:30.535Z,10.63
2023-04-08T23:05:37.724Z,15.48
2023-04-08T23:08:10.488Z,14.85
2023-04-08T23:10:43.159Z,12.43
2023-04-08T23:13:15.983Z,13.70
2023-04-08T23:15:48.793Z,17.05
2023-04-08T23:18:22.932Z,14.38
2023-04-08T23:20:57.143Z,12.43
2023-04-08T23:23:29.915Z,14.50
2023-04-08T23:26:02.598Z,15.13
2023-04-08T23:28:35.382Z,15.85
2023-04-08T23:31:08.084Z,17.98
2023-04-08T23:33:42.199Z,15.57
2023-04-08T23:36:14.990Z,16.98
2023-04-08T23:38:47.754Z,19.88
2023-04-08T23:41:20.569Z,16.15
2023-04-08T23:43:53.563Z,16.35
2023-04-08T23:49:00.440Z,16.83
2023-04-08T23:51:33.142Z,18.67
2023-04-08T23:54:06.616Z,16.67
2023-04-08T23:56:41.586Z,16.42
2023-04-08T23:59:14.489Z,15.45
